sensor_id;sensor_type;location;lat;lon;timestamp;P1;durP1;ratioP1;P2;durP2;ratioP2
20002;SDS011;10162;41.600;23.806;2023-07-16T00:01:21;15.60;;;12.57;;
20002;SDS011;10162;41.600;23.806;2023-07-16T00:03:47;16.30;;;13.10;;
20002;SDS011;10162;41.600;23.806;2023-07-16T00:09:19;13.48;;;12.07;;
20002;SDS011;10162;41.600;23.806;2023-07-16T00:11:45;14.68;;;12.73;;
20002;SDS011;10162;41.600;23.806;2023-07-16T00:14:12;16.92;;;12.75;;
20002;SDS011;10162;41.600;23.806;2023-07-16T00:16:38;16.75;;;13.20;;
20002;SDS011;10162;41.600;23.806;2023-07-16T00:19:05;17.45;;;11.77;;
20002;SDS011;10162;41.600;23.806;2023-07-16T00:21:31;17.40;;;12.57;;
20002;SDS011;10162;41.600;23.806;2023-07-16T00:23:58;17.35;;;12.05;;
20002;SDS011;10162;41.600;23.806;2023-07-16T00:26:30;13.63;;;11.88;;
20002;SDS011;10162;41.600;23.806;2023-07-16T00:28:56;16.08;;;12.27;;
20002;SDS011;10162;41.600;23.806;2023-07-16T00:31:22;14.82;;;12.68;;
20002;SDS011;10162;41.600;23.806;2023-07-16T00:33:50;14.95;;;12.00;;
20002;SDS011;10162;41.600;23.806;2023-07-16T00:39:06;16.15;;;12.00;;
20002;SDS011;10162;41.600;23.806;2023-07-16T00:41:32;13.93;;;12.45;;
20002;SDS011;10162;41.600;23.806;2023-07-16T00:43:58;17.27;;;13.32;;
20002;SDS011;10162;41.600;23.806;2023-07-16T00:49:58;14.30;;;11.80;;
20002;SDS011;10162;41.600;23.806;2023-07-16T00:52:24;16.17;;;13.00;;
20002;SDS011;10162;41.600;23.806;2023-07-16T00:58:05;16.48;;;12.23;;
20002;SDS011;10162;41.600;23.806;2023-07-16T01:00:34;15.73;;;12.57;;
20002;SDS011;10162;41.600;23.806;2023-07-16T01:03:02;17.15;;;12.80;;
20002;SDS011;10162;41.600;23.806;2023-07-16T01:08:41;16.13;;;13.23;;
20002;SDS011;10162;41.600;23.806;2023-07-16T01:11:11;15.75;;;13.50;;
20002;SDS011;10162;41.600;23.806;2023-07-16T01:13:38;15.23;;;13.63;;
20002;SDS011;10162;41.600;23.806;2023-07-16T01:19:10;18.80;;;14.10;;
20002;SDS011;10162;41.600;23.806;2023-07-16T01:30:21;16.83;;;13.98;;
20002;SDS011;10162;41.600;23.806;2023-07-16T01:32:50;15.98;;;13.68;;
20002;SDS011;10162;41.600;23.806;2023-07-16T01:35:33;20.35;;;14.68;;
20002;SDS011;10162;41.600;23.806;2023-07-16T01:38:01;19.85;;;14.50;;
20002;SDS011;10162;41.600;23.806;2023-07-16T01:40:29;18.55;;;15.02;;
20002;SDS011;10162;41.600;23.806;2023-07-16T01:42:55;19.02;;;15.00;;
20002;SDS011;10162;41.600;23.806;2023-07-16T01:48:24;18.75;;;14.48;;
20002;SDS011;10162;41.600;23.806;2023-07-16T01:50:56;21.60;;;14.88;;
20002;SDS011;10162;41.600;23.806;2023-07-16T01:53:21;18.10;;;14.13;;
20002;SDS011;10162;41.600;23.806;2023-07-16T01:58:33;19.23;;;14.48;;
20002;SDS011;10162;41.600;23.806;2023-07-16T02:00:59;17.45;;;14.48;;
20002;SDS011;10162;41.600;23.806;2023-07-16T02:03:25;15.82;;;14.10;;
20002;SDS011;10162;41.600;23.806;2023-07-16T02:06:02;16.35;;;14.60;;
20002;SDS011;10162;41.600;23.806;2023-07-16T02:08:27;17.75;;;13.95;;
20002;SDS011;10162;41.600;23.806;2023-07-16T02:10:53;16.70;;;14.18;;
20002;SDS011;10162;41.600;23.806;2023-07-16T02:13:20;18.42;;;14.20;;
20002;SDS011;10162;41.600;23.806;2023-07-16T02:19:00;17.13;;;14.20;;
20002;SDS011;10162;41.600;23.806;2023-07-16T02:21:25;15.57;;;13.88;;
20002;SDS011;10162;41.600;23.806;2023-07-16T02:23:51;15.68;;;13.65;;
20002;SDS011;10162;41.600;23.806;2023-07-16T02:29:32;19.15;;;13.93;;
20002;SDS011;10162;41.600;23.806;2023-07-16T02:31:58;14.32;;;12.88;;
20002;SDS011;10162;41.600;23.806;2023-07-16T02:37:10;19.02;;;14.13;;
20002;SDS011;10162;41.600;23.806;2023-07-16T02:39:36;18.23;;;14.35;;
20002;SDS011;10162;41.600;23.806;2023-07-16T02:42:04;16.95;;;13.77;;
20002;SDS011;10162;41.600;23.806;2023-07-16T02:47:30;17.05;;;14.50;;
20002;SDS011;10162;41.600;23.806;2023-07-16T02:49:55;20.67;;;14.90;;
20002;SDS011;10162;41.600;23.806;2023-07-16T02:52:21;18.13;;;14.80;;
20002;SDS011;10162;41.600;23.806;2023-07-16T02:57:58;17.07;;;14.83;;
20002;SDS011;10162;41.600;23.806;2023-07-16T03:00:27;16.07;;;14.37;;
20002;SDS011;10162;41.600;23.806;2023-07-16T03:02:56;18.83;;;15.17;;
20002;SDS011;10162;41.600;23.806;2023-07-16T03:08:24;19.50;;;14.93;;
20002;SDS011;10162;41.600;23.806;2023-07-16T03:10:55;16.90;;;15.00;;
20002;SDS011;10162;41.600;23.806;2023-07-16T03:13:22;20.17;;;14.93;;
20002;SDS011;10162;41.600;23.806;2023-07-16T03:18:47;16.83;;;14.47;;
20002;SDS011;10162;41.600;23.806;2023-07-16T03:21:13;17.07;;;15.27;;
20002;SDS011;10162;41.600;23.806;2023-07-16T03:23:39;16.50;;;14.13;;
20002;SDS011;10162;41.600;23.806;2023-07-16T03:28:55;17.07;;;14.13;;
20002;SDS011;10162;41.600;23.806;2023-07-16T03:31:21;22.07;;;14.70;;
20002;SDS011;10162;41.600;23.806;2023-07-16T03:33:49;17.67;;;14.68;;
20002;SDS011;10162;41.600;23.806;2023-07-16T03:39:24;18.27;;;14.27;;
20002;SDS011;10162;41.600;23.806;2023-07-16T03:41:53;18.00;;;13.93;;
20002;SDS011;10162;41.600;23.806;2023-07-16T03:47:30;69.47;;;55.20;;
20002;SDS011;10162;41.600;23.806;2023-07-16T03:49:55;26.90;;;22.63;;
20002;SDS011;10162;41.600;23.806;2023-07-16T03:52:23;16.70;;;14.63;;
20002;SDS011;10162;41.600;23.806;2023-07-16T03:58:19;20.23;;;16.25;;
20002;SDS011;10162;41.600;23.806;2023-07-16T04:00:44;20.55;;;15.07;;
20002;SDS011;10162;41.600;23.806;2023-07-16T04:03:10;17.80;;;15.20;;
20002;SDS011;10162;41.600;23.806;2023-07-16T04:05:47;17.73;;;15.82;;
20002;SDS011;10162;41.600;23.806;2023-07-16T04:08:14;19.40;;;15.00;;
20002;SDS011;10162;41.600;23.806;2023-07-16T04:10:39;17.58;;;15.75;;
20002;SDS011;10162;41.600;23.806;2023-07-16T04:13:07;17.50;;;14.70;;
20002;SDS011;10162;41.600;23.806;2023-07-16T04:18:38;38.58;;;28.38;;
20002;SDS011;10162;41.600;23.806;2023-07-16T04:21:04;43.63;;;31.35;;
20002;SDS011;10162;41.600;23.806;2023-07-16T04:23:30;28.23;;;19.10;;
20002;SDS011;10162;41.600;23.806;2023-07-16T04:28:53;28.55;;;17.13;;
20002;SDS011;10162;41.600;23.806;2023-07-16T04:31:18;44.67;;;18.77;;
20002;SDS011;10162;41.600;23.806;2023-07-16T04:33:44;46.95;;;18.58;;
20002;SDS011;10162;41.600;23.806;2023-07-16T04:39:22;48.42;;;19.65;;
20002;SDS011;10162;41.600;23.806;2023-07-16T04:41:48;58.08;;;21.10;;
20002;SDS011;10162;41.600;23.806;2023-07-16T04:46:59;107.88;;;26.13;;
20002;SDS011;10162;41.600;23.806;2023-07-16T04:49:25;111.13;;;23.65;;
20002;SDS011;10162;41.600;23.806;2023-07-16T04:51:50;102.93;;;26.55;;
20002;SDS011;10162;41.600;23.806;2023-07-16T04:54:16;95.88;;;27.17;;
20002;SDS011;10162;41.600;23.806;2023-07-16T04:56:42;84.10;;;22.23;;
20002;SDS011;10162;41.600;23.806;2023-07-16T04:59:08;39.35;;;18.95;;
20002;SDS011;10162;41.600;23.806;2023-07-16T05:01:35;43.28;;;18.70;;
20002;SDS011;10162;41.600;23.806;2023-07-16T05:04:01;52.97;;;19.70;;
20002;SDS011;10162;41.600;23.806;2023-07-16T05:06:42;29.25;;;16.42;;
20002;SDS011;10162;41.600;23.806;2023-07-16T05:09:08;25.98;;;15.52;;
20002;SDS011;10162;41.600;23.806;2023-07-16T05:11:34;30.45;;;15.13;;
20002;SDS011;10162;41.600;23.806;2023-07-16T05:14:01;23.15;;;14.85;;
20002;SDS011;10162;41.600;23.806;2023-07-16T05:19:36;25.20;;;14.38;;
20002;SDS011;10162;41.600;23.806;2023-07-16T05:22:02;29.10;;;16.52;;
20002;SDS011;10162;41.600;23.806;2023-07-16T05:27:21;20.45;;;14.75;;
20002;SDS011;10162;41.600;23.806;2023-07-16T05:29:47;18.88;;;15.32;;
20002;SDS011;10162;41.600;23.806;2023-07-16T05:32:13;28.88;;;17.75;;
20002;SDS011;10162;41.600;23.806;2023-07-16T05:37:39;24.08;;;16.77;;
20002;SDS011;10162;41.600;23.806;2023-07-16T05:40:05;28.00;;;18.73;;
20002;SDS011;10162;41.600;23.806;2023-07-16T05:42:35;29.02;;;21.02;;
20002;SDS011;10162;41.600;23.806;2023-07-16T05:48:16;27.00;;;16.42;;
20002;SDS011;10162;41.600;23.806;2023-07-16T05:50:43;32.08;;;20.92;;
20002;SDS011;10162;41.600;23.806;2023-07-16T05:53:11;24.48;;;18.73;;
20002;SDS011;10162;41.600;23.806;2023-07-16T05:55:39;21.13;;;16.98;;
20002;SDS011;10162;41.600;23.806;2023-07-16T05:58:05;24.52;;;17.15;;
20002;SDS011;10162;41.600;23.806;2023-07-16T06:00:31;29.70;;;17.70;;
20002;SDS011;10162;41.600;23.806;2023-07-16T06:02:57;19.60;;;17.27;;
20002;SDS011;10162;41.600;23.806;2023-07-16T06:05:23;20.35;;;17.95;;
20002;SDS011;10162;41.600;23.806;2023-07-16T06:07:51;24.25;;;17.98;;
20002;SDS011;10162;41.600;23.806;2023-07-16T06:10:17;23.60;;;17.63;;
20002;SDS011;10162;41.600;23.806;2023-07-16T06:12:43;21.20;;;19.00;;
20002;SDS011;10162;41.600;23.806;2023-07-16T06:15:10;24.17;;;18.60;;
20002;SDS011;10162;41.600;23.806;2023-07-16T06:17:37;21.52;;;16.75;;
20002;SDS011;10162;41.600;23.806;2023-07-16T06:20:03;20.25;;;15.40;;
20002;SDS011;10162;41.600;23.806;2023-07-16T06:22:30;21.70;;;16.50;;
20002;SDS011;10162;41.600;23.806;2023-07-16T06:25:00;20.35;;;15.77;;
20002;SDS011;10162;41.600;23.806;2023-07-16T06:27:28;21.77;;;16.00;;
20002;SDS011;10162;41.600;23.806;2023-07-16T06:29:53;17.75;;;14.48;;
20002;SDS011;10162;41.600;23.806;2023-07-16T06:32:21;17.52;;;15.63;;
20002;SDS011;10162;41.600;23.806;2023-07-16T06:34:47;21.35;;;15.95;;
20002;SDS011;10162;41.600;23.806;2023-07-16T06:37:13;23.30;;;16.67;;
20002;SDS011;10162;41.600;23.806;2023-07-16T06:39:39;20.80;;;16.60;;
20002;SDS011;10162;41.600;23.806;2023-07-16T06:42:05;21.00;;;16.70;;
20002;SDS011;10162;41.600;23.806;2023-07-16T06:44:31;24.70;;;16.35;;
20002;SDS011;10162;41.600;23.806;2023-07-16T06:46:57;24.30;;;16.33;;
20002;SDS011;10162;41.600;23.806;2023-07-16T06:49:23;19.15;;;15.23;;
20002;SDS011;10162;41.600;23.806;2023-07-16T06:51:49;18.70;;;16.10;;
20002;SDS011;10162;41.600;23.806;2023-07-16T06:54:14;20.65;;;16.30;;
20002;SDS011;10162;41.600;23.806;2023-07-16T06:56:43;17.42;;;14.48;;
20002;SDS011;10162;41.600;23.806;2023-07-16T06:59:09;17.60;;;15.15;;
20002;SDS011;10162;41.600;23.806;2023-07-16T07:01:34;19.70;;;15.27;;
20002;SDS011;10162;41.600;23.806;2023-07-16T07:04:00;19.60;;;16.58;;
20002;SDS011;10162;41.600;23.806;2023-07-16T07:06:31;18.73;;;16.20;;
20002;SDS011;10162;41.600;23.806;2023-07-16T07:08:57;21.77;;;16.27;;
20002;SDS011;10162;41.600;23.806;2023-07-16T07:11:23;20.58;;;15.50;;
20002;SDS011;10162;41.600;23.806;2023-07-16T07:13:49;19.10;;;16.73;;
20002;SDS011;10162;41.600;23.806;2023-07-16T07:16:18;18.73;;;16.65;;
20002;SDS011;10162;41.600;23.806;2023-07-16T07:18:44;22.20;;;16.15;;
20002;SDS011;10162;41.600;23.806;2023-07-16T07:21:11;19.63;;;15.98;;
20002;SDS011;10162;41.600;23.806;2023-07-16T07:23:36;20.42;;;16.38;;
20002;SDS011;10162;41.600;23.806;2023-07-16T07:26:05;20.98;;;15.68;;
20002;SDS011;10162;41.600;23.806;2023-07-16T07:28:31;17.40;;;15.57;;
20002;SDS011;10162;41.600;23.806;2023-07-16T07:30:59;18.25;;;15.18;;
20002;SDS011;10162;41.600;23.806;2023-07-16T07:33:24;25.15;;;15.38;;
20002;SDS011;10162;41.600;23.806;2023-07-16T07:35:53;18.90;;;14.20;;
20002;SDS011;10162;41.600;23.806;2023-07-16T07:38:19;16.30;;;14.10;;
20002;SDS011;10162;41.600;23.806;2023-07-16T07:40:46;20.25;;;16.90;;
20002;SDS011;10162;41.600;23.806;2023-07-16T07:43:12;17.20;;;14.32;;
20002;SDS011;10162;41.600;23.806;2023-07-16T07:45:41;16.45;;;14.20;;
20002;SDS011;10162;41.600;23.806;2023-07-16T07:48:06;21.55;;;14.35;;
20002;SDS011;10162;41.600;23.806;2023-07-16T07:50:32;17.42;;;14.95;;
20002;SDS011;10162;41.600;23.806;2023-07-16T07:52:58;16.13;;;14.43;;
20002;SDS011;10162;41.600;23.806;2023-07-16T07:59:18;15.20;;;13.60;;
20002;SDS011;10162;41.600;23.806;2023-07-16T08:01:44;16.83;;;13.63;;
20002;SDS011;10162;41.600;23.806;2023-07-16T08:04:10;16.38;;;12.88;;
20002;SDS011;10162;41.600;23.806;2023-07-16T08:06:35;19.95;;;13.38;;
20002;SDS011;10162;41.600;23.806;2023-07-16T08:09:01;23.38;;;13.85;;
20002;SDS011;10162;41.600;23.806;2023-07-16T08:11:28;18.60;;;12.85;;
20002;SDS011;10162;41.600;23.806;2023-07-16T08:13:53;18.75;;;13.98;;
20002;SDS011;10162;41.600;23.806;2023-07-16T08:16:27;41.05;;;15.80;;
20002;SDS011;10162;41.600;23.806;2023-07-16T08:18:53;22.45;;;14.45;;
20002;SDS011;10162;41.600;23.806;2023-07-16T08:21:19;31.33;;;15.02;;
20002;SDS011;10162;41.600;23.806;2023-07-16T08:23:48;31.70;;;15.57;;
20002;SDS011;10162;41.600;23.806;2023-07-16T08:28:43;29.88;;;15.45;;
20002;SDS011;10162;41.600;23.806;2023-07-16T08:31:10;30.10;;;15.05;;
20002;SDS011;10162;41.600;23.806;2023-07-16T08:33:37;41.38;;;15.45;;
20002;SDS011;10162;41.600;23.806;2023-07-16T08:39:21;28.75;;;14.15;;
20002;SDS011;10162;41.600;23.806;2023-07-16T08:41:48;41.25;;;15.55;;
20002;SDS011;10162;41.600;23.806;2023-07-16T08:47:14;33.40;;;14.07;;
20002;SDS011;10162;41.600;23.806;2023-07-16T08:49:40;28.00;;;13.27;;
20002;SDS011;10162;41.600;23.806;2023-07-16T08:52:06;24.23;;;13.93;;
20002;SDS011;10162;41.600;23.806;2023-07-16T08:54:41;20.42;;;12.00;;
20002;SDS011;10162;41.600;23.806;2023-07-16T08:57:20;15.75;;;12.73;;
20002;SDS011;10162;41.600;23.806;2023-07-16T08:59:49;35.22;;;14.07;;
20002;SDS011;10162;41.600;23.806;2023-07-16T09:02:43;49.30;;;14.93;;
20002;SDS011;10162;41.600;23.806;2023-07-16T09:05:31;28.15;;;13.73;;
20002;SDS011;10162;41.600;23.806;2023-07-16T09:08:00;29.48;;;14.60;;
20002;SDS011;10162;41.600;23.806;2023-07-16T09:10:34;32.67;;;14.75;;
20002;SDS011;10162;41.600;23.806;2023-07-16T09:13:04;20.83;;;13.48;;
20002;SDS011;10162;41.600;23.806;2023-07-16T09:18:29;16.88;;;13.32;;
20002;SDS011;10162;41.600;23.806;2023-07-16T09:21:10;17.60;;;12.27;;
20002;SDS011;10162;41.600;23.806;2023-07-16T09:23:42;17.35;;;12.57;;
20002;SDS011;10162;41.600;23.806;2023-07-16T09:29:21;16.10;;;12.15;;
20002;SDS011;10162;41.600;23.806;2023-07-16T09:37:24;15.45;;;12.27;;
20002;SDS011;10162;41.600;23.806;2023-07-16T09:44:07;15.48;;;12.68;;
20002;SDS011;10162;41.600;23.806;2023-07-16T09:46:57;19.30;;;13.27;;
20002;SDS011;10162;41.600;23.806;2023-07-16T09:53:34;14.35;;;12.77;;
20002;SDS011;10162;41.600;23.806;2023-07-16T09:57:34;15.70;;;13.25;;
20002;SDS011;10162;41.600;23.806;2023-07-16T10:00:03;16.60;;;12.25;;
20002;SDS011;10162;41.600;23.806;2023-07-16T10:03:19;15.18;;;12.93;;
20002;SDS011;10162;41.600;23.806;2023-07-16T10:28:47;13.48;;;12.15;;
20002;SDS011;10162;41.600;23.806;2023-07-16T10:31:17;13.10;;;11.68;;
20002;SDS011;10162;41.600;23.806;2023-07-16T10:34:14;16.33;;;12.48;;
20002;SDS011;10162;41.600;23.806;2023-07-16T10:36:40;13.48;;;12.05;;
20002;SDS011;10162;41.600;23.806;2023-07-16T10:39:06;16.33;;;12.73;;
20002;SDS011;10162;41.600;23.806;2023-07-16T10:41:34;16.63;;;11.70;;
20002;SDS011;10162;41.600;23.806;2023-07-16T10:44:00;13.52;;;11.60;;
20002;SDS011;10162;41.600;23.806;2023-07-16T10:46:28;15.25;;;12.45;;
20002;SDS011;10162;41.600;23.806;2023-07-16T10:48:57;13.82;;;12.43;;
20002;SDS011;10162;41.600;23.806;2023-07-16T12:36:07;11.73;;;8.93;;
20002;SDS011;10162;41.600;23.806;2023-07-16T15:41:40;9.18;;;7.97;;
20002;SDS011;10162;41.600;23.806;2023-07-16T15:44:10;10.32;;;7.75;;
20002;SDS011;10162;41.600;23.806;2023-07-16T15:46:36;10.82;;;7.32;;
20002;SDS011;10162;41.600;23.806;2023-07-16T15:49:02;10.70;;;7.35;;
20002;SDS011;10162;41.600;23.806;2023-07-16T15:51:29;9.32;;;8.15;;
20002;SDS011;10162;41.600;23.806;2023-07-16T15:53:56;15.07;;;8.60;;
20002;SDS011;10162;41.600;23.806;2023-07-16T16:00:16;10.82;;;8.05;;
20002;SDS011;10162;41.600;23.806;2023-07-16T16:02:43;9.57;;;7.70;;
20002;SDS011;10162;41.600;23.806;2023-07-16T16:09:05;8.45;;;7.05;;
20002;SDS011;10162;41.600;23.806;2023-07-16T16:11:31;11.93;;;7.15;;
20002;SDS011;10162;41.600;23.806;2023-07-16T16:13:56;9.27;;;7.50;;
20002;SDS011;10162;41.600;23.806;2023-07-16T16:20:20;8.23;;;7.43;;
20002;SDS011;10162;41.600;23.806;2023-07-16T16:23:29;9.23;;;7.90;;
20002;SDS011;10162;41.600;23.806;2023-07-16T16:30:17;7.85;;;6.95;;
20002;SDS011;10162;41.600;23.806;2023-07-16T16:32:43;8.73;;;7.82;;
20002;SDS011;10162;41.600;23.806;2023-07-16T16:35:10;12.93;;;7.80;;
20002;SDS011;10162;41.600;23.806;2023-07-16T16:37:36;8.18;;;7.43;;
20002;SDS011;10162;41.600;23.806;2023-07-16T16:40:04;10.43;;;7.78;;
20002;SDS011;10162;41.600;23.806;2023-07-16T16:42:34;8.82;;;7.65;;
20002;SDS011;10162;41.600;23.806;2023-07-16T16:45:08;8.85;;;7.00;;
20002;SDS011;10162;41.600;23.806;2023-07-16T16:47:36;11.13;;;8.07;;
20002;SDS011;10162;41.600;23.806;2023-07-16T16:50:02;9.88;;;7.85;;
20002;SDS011;10162;41.600;23.806;2023-07-16T16:52:29;13.15;;;8.38;;
20002;SDS011;10162;41.600;23.806;2023-07-16T16:57:49;9.68;;;7.63;;
20002;SDS011;10162;41.600;23.806;2023-07-16T17:00:15;10.57;;;7.80;;
20002;SDS011;10162;41.600;23.806;2023-07-16T17:02:44;9.02;;;6.95;;
20002;SDS011;10162;41.600;23.806;2023-07-16T17:09:04;10.05;;;7.20;;
20002;SDS011;10162;41.600;23.806;2023-07-16T17:11:30;8.43;;;7.55;;
20002;SDS011;10162;41.600;23.806;2023-07-16T17:13:55;11.00;;;7.47;;
20002;SDS011;10162;41.600;23.806;2023-07-16T17:24:11;12.00;;;8.00;;
20002;SDS011;10162;41.600;23.806;2023-07-16T17:29:22;8.88;;;7.93;;
20002;SDS011;10162;41.600;23.806;2023-07-16T17:31:49;8.57;;;7.70;;
20002;SDS011;10162;41.600;23.806;2023-07-16T17:37:11;9.02;;;7.90;;
20002;SDS011;10162;41.600;23.806;2023-07-16T17:39:37;10.55;;;7.78;;
20002;SDS011;10162;41.600;23.806;2023-07-16T17:42:05;10.35;;;7.70;;
20002;SDS011;10162;41.600;23.806;2023-07-16T17:47:40;13.65;;;7.75;;
20002;SDS011;10162;41.600;23.806;2023-07-16T17:50:06;9.93;;;7.70;;
20002;SDS011;10162;41.600;23.806;2023-07-16T17:52:32;9.05;;;7.47;;
20002;SDS011;10162;41.600;23.806;2023-07-16T17:57:34;9.57;;;8.20;;
20002;SDS011;10162;41.600;23.806;2023-07-16T17:59:59;14.85;;;8.02;;
20002;SDS011;10162;41.600;23.806;2023-07-16T18:02:25;11.18;;;8.45;;
20002;SDS011;10162;41.600;23.806;2023-07-16T18:08:17;9.40;;;7.95;;
20002;SDS011;10162;41.600;23.806;2023-07-16T18:10:43;10.30;;;8.25;;
20002;SDS011;10162;41.600;23.806;2023-07-16T18:13:10;10.90;;;8.27;;
20002;SDS011;10162;41.600;23.806;2023-07-16T18:15:42;13.52;;;8.20;;
20002;SDS011;10162;41.600;23.806;2023-07-16T18:18:08;10.70;;;8.10;;
20002;SDS011;10162;41.600;23.806;2023-07-16T18:20:34;11.65;;;8.45;;
20002;SDS011;10162;41.600;23.806;2023-07-16T18:23:01;12.23;;;7.95;;
20002;SDS011;10162;41.600;23.806;2023-07-16T18:28:31;9.05;;;8.05;;
20002;SDS011;10162;41.600;23.806;2023-07-16T18:30:57;11.75;;;8.48;;
20002;SDS011;10162;41.600;23.806;2023-07-16T18:33:27;10.48;;;8.73;;
20002;SDS011;10162;41.600;23.806;2023-07-16T18:38:43;10.93;;;8.00;;
20002;SDS011;10162;41.600;23.806;2023-07-16T18:41:09;15.40;;;8.77;;
20002;SDS011;10162;41.600;23.806;2023-07-16T18:43:35;13.75;;;8.48;;
20002;SDS011;10162;41.600;23.806;2023-07-16T18:48:57;12.68;;;8.55;;
20002;SDS011;10162;41.600;23.806;2023-07-16T18:51:22;9.20;;;8.30;;
20002;SDS011;10162;41.600;23.806;2023-07-16T18:53:48;10.43;;;8.80;;
20002;SDS011;10162;41.600;23.806;2023-07-16T19:00:08;15.05;;;8.02;;
20002;SDS011;10162;41.600;23.806;2023-07-16T19:02:35;13.07;;;9.13;;
20002;SDS011;10162;41.600;23.806;2023-07-16T19:08:32;10.07;;;7.82;;
20002;SDS011;10162;41.600;23.806;2023-07-16T19:10:59;9.32;;;8.30;;
20002;SDS011;10162;41.600;23.806;2023-07-16T19:13:24;10.10;;;7.97;;
20002;SDS011;10162;41.600;23.806;2023-07-16T19:18:49;14.10;;;9.05;;
20002;SDS011;10162;41.600;23.806;2023-07-16T19:21:15;9.68;;;8.48;;
20002;SDS011;10162;41.600;23.806;2023-07-16T19:23:43;8.73;;;7.82;;
20002;SDS011;10162;41.600;23.806;2023-07-16T19:30:04;9.38;;;8.20;;
20002;SDS011;10162;41.600;23.806;2023-07-16T19:32:33;9.63;;;8.43;;
20002;SDS011;10162;41.600;23.806;2023-07-16T19:37:36;10.88;;;8.68;;
20002;SDS011;10162;41.600;23.806;2023-07-16T19:40:02;11.77;;;9.25;;
20002;SDS011;10162;41.600;23.806;2023-07-16T19:42:32;10.15;;;8.30;;
20002;SDS011;10162;41.600;23.806;2023-07-16T19:47:59;11.68;;;8.88;;
20002;SDS011;10162;41.600;23.806;2023-07-16T19:50:28;9.00;;;8.10;;
20002;SDS011;10162;41.600;23.806;2023-07-16T19:52:56;10.15;;;8.25;;
20002;SDS011;10162;41.600;23.806;2023-07-16T19:59:15;13.00;;;9.05;;
20002;SDS011;10162;41.600;23.806;2023-07-16T20:01:41;10.25;;;8.82;;
20002;SDS011;10162;41.600;23.806;2023-07-16T20:04:06;10.20;;;8.85;;
20002;SDS011;10162;41.600;23.806;2023-07-16T20:06:33;11.35;;;8.65;;
20002;SDS011;10162;41.600;23.806;2023-07-16T20:08:59;10.57;;;9.15;;
20002;SDS011;10162;41.600;23.806;2023-07-16T20:11:24;10.05;;;8.55;;
20002;SDS011;10162;41.600;23.806;2023-07-16T20:13:51;11.52;;;8.27;;
20002;SDS011;10162;41.600;23.806;2023-07-16T20:19:33;10.65;;;9.50;;
20002;SDS011;10162;41.600;23.806;2023-07-16T20:21:59;11.50;;;8.88;;
20002;SDS011;10162;41.600;23.806;2023-07-16T20:28:24;8.98;;;8.07;;
20002;SDS011;10162;41.600;23.806;2023-07-16T20:30:51;9.93;;;8.93;;
20002;SDS011;10162;41.600;23.806;2023-07-16T20:33:18;9.73;;;8.50;;
20002;SDS011;10162;41.600;23.806;2023-07-16T20:38:31;13.23;;;9.57;;
20002;SDS011;10162;41.600;23.806;2023-07-16T20:40:56;10.40;;;9.27;;
20002;SDS011;10162;41.600;23.806;2023-07-16T20:43:22;11.38;;;9.52;;
20002;SDS011;10162;41.600;23.806;2023-07-16T20:49:42;12.43;;;9.05;;
20002;SDS011;10162;41.600;23.806;2023-07-16T20:52:08;9.82;;;8.60;;
20002;SDS011;10162;41.600;23.806;2023-07-16T20:58:00;10.48;;;8.30;;
20002;SDS011;10162;41.600;23.806;2023-07-16T21:00:27;14.32;;;8.85;;
20002;SDS011;10162;41.600;23.806;2023-07-16T21:02:57;14.13;;;8.98;;
20002;SDS011;10162;41.600;23.806;2023-07-16T21:09:18;9.50;;;8.60;;
20002;SDS011;10162;41.600;23.806;2023-07-16T21:11:45;10.68;;;9.23;;
20002;SDS011;10162;41.600;23.806;2023-07-16T21:18:05;9.82;;;8.38;;
20002;SDS011;10162;41.600;23.806;2023-07-16T21:20:36;10.13;;;8.75;;
20002;SDS011;10162;41.600;23.806;2023-07-16T21:23:08;21.13;;;9.65;;
20002;SDS011;10162;41.600;23.806;2023-07-16T21:28:32;10.13;;;8.32;;
20002;SDS011;10162;41.600;23.806;2023-07-16T21:30:58;14.82;;;9.23;;
20002;SDS011;10162;41.600;23.806;2023-07-16T21:33:25;13.85;;;9.00;;
20002;SDS011;10162;41.600;23.806;2023-07-16T21:39:45;9.57;;;8.57;;
20002;SDS011;10162;41.600;23.806;2023-07-16T21:42:11;10.88;;;9.30;;
20002;SDS011;10162;41.600;23.806;2023-07-16T21:48:31;10.18;;;9.25;;
20002;SDS011;10162;41.600;23.806;2023-07-16T21:50:57;10.52;;;9.35;;
20002;SDS011;10162;41.600;23.806;2023-07-16T21:53:22;10.95;;;9.10;;
20002;SDS011;10162;41.600;23.806;2023-07-16T21:59:09;11.63;;;10.23;;
20002;SDS011;10162;41.600;23.806;2023-07-16T22:01:35;12.05;;;9.25;;
20002;SDS011;10162;41.600;23.806;2023-07-16T22:04:02;10.40;;;9.40;;
20002;SDS011;10162;41.600;23.806;2023-07-16T22:09:17;11.52;;;9.75;;
20002;SDS011;10162;41.600;23.806;2023-07-16T22:11:43;10.60;;;9.30;;
20002;SDS011;10162;41.600;23.806;2023-07-16T22:14:09;10.77;;;9.70;;
20002;SDS011;10162;41.600;23.806;2023-07-16T22:16:35;11.77;;;9.43;;
20002;SDS011;10162;41.600;23.806;2023-07-16T22:19:02;11.93;;;10.30;;
20002;SDS011;10162;41.600;23.806;2023-07-16T22:21:36;15.35;;;9.55;;
20002;SDS011;10162;41.600;23.806;2023-07-16T22:24:03;11.02;;;9.95;;
20002;SDS011;10162;41.600;23.806;2023-07-16T22:30:23;14.25;;;9.77;;
20002;SDS011;10162;41.600;23.806;2023-07-16T22:32:49;10.25;;;9.07;;
20002;SDS011;10162;41.600;23.806;2023-07-16T22:37:53;11.00;;;9.80;;
20002;SDS011;10162;41.600;23.806;2023-07-16T22:40:18;10.57;;;9.45;;
20002;SDS011;10162;41.600;23.806;2023-07-16T22:42:44;13.27;;;10.25;;
20002;SDS011;10162;41.600;23.806;2023-07-16T22:49:04;11.57;;;9.82;;
20002;SDS011;10162;41.600;23.806;2023-07-16T22:51:32;12.07;;;10.38;;
20002;SDS011;10162;41.600;23.806;2023-07-16T22:53:58;17.85;;;11.43;;
20002;SDS011;10162;41.600;23.806;2023-07-16T22:59:29;15.52;;;11.15;;
20002;SDS011;10162;41.600;23.806;2023-07-16T23:01:54;11.23;;;10.02;;
20002;SDS011;10162;41.600;23.806;2023-07-16T23:08:14;12.65;;;10.80;;
20002;SDS011;10162;41.600;23.806;2023-07-16T23:10:40;11.75;;;10.48;;
20002;SDS011;10162;41.600;23.806;2023-07-16T23:13:06;15.45;;;11.18;;
20002;SDS011;10162;41.600;23.806;2023-07-16T23:19:45;12.68;;;10.20;;
20002;SDS011;10162;41.600;23.806;2023-07-16T23:22:12;13.70;;;10.02;;
20002;SDS011;10162;41.600;23.806;2023-07-16T23:27:10;11.63;;;10.15;;
20002;SDS011;10162;41.600;23.806;2023-07-16T23:29:37;13.63;;;10.23;;
20002;SDS011;10162;41.600;23.806;2023-07-16T23:32:03;13.55;;;10.98;;
20002;SDS011;10162;41.600;23.806;2023-07-16T23:38:23;12.60;;;10.35;;
20002;SDS011;10162;41.600;23.806;2023-07-16T23:40:50;11.60;;;10.50;;
20002;SDS011;10162;41.600;23.806;2023-07-16T23:43:16;12.02;;;10.77;;
20002;SDS011;10162;41.600;23.806;2023-07-16T23:49:07;14.35;;;11.40;;
20002;SDS011;10162;41.600;23.806;2023-07-16T23:51:33;14.95;;;10.93;;
20002;SDS011;10162;41.600;23.806;2023-07-16T23:53:58;11.65;;;10.45;;
